sensor_id;sensor_type;location;lat;lon;timestamp;pressure;altitude;pressure_sealevel;temperature;humidity
59106;BME280;44891;50.204;8.132;2022-10-15T00:02:52;97447.78;;;13.53;100.00
59106;BME280;44891;50.204;8.132;2022-10-15T00:06:54;97444.59;;;13.56;100.00
59106;BME280;44891;50.204;8.132;2022-10-15T00:11:03;97431.16;;;13.52;100.00
59106;BME280;44891;50.204;8.132;2022-10-15T00:15:07;97437.94;;;13.64;100.00
59106;BME280;44891;50.204;8.132;2022-10-15T00:19:10;97438.75;;;13.59;100.00
59106;BME280;44891;50.204;8.132;2022-10-15T00:23:12;97455.34;;;13.65;100.00
59106;BME280;44891;50.204;8.132;2022-10-15T00:27:15;97446.66;;;13.64;100.00
59106;BME280;44891;50.204;8.132;2022-10-15T00:31:18;97446.34;;;13.66;100.00
59106;BME280;44891;50.204;8.132;2022-10-15T00:35:22;97438.50;;;13.60;100.00
59106;BME280;44891;50.204;8.132;2022-10-15T00:39:25;97429.06;;;13.54;100.00
59106;BME280;44891;50.204;8.132;2022-10-15T00:43:40;97439.28;;;13.61;100.00
59106;BME280;44891;50.204;8.132;2022-10-15T00:47:45;97439.28;;;13.61;100.00
59106;BME280;44891;50.204;8.132;2022-10-15T00:51:54;97444.25;;;13.68;100.00
59106;BME280;44891;50.204;8.132;2022-10-15T00:55:58;97437.63;;;13.70;100.00
59106;BME280;44891;50.204;8.132;2022-10-15T01:00:06;97442.16;;;13.65;100.00
59106;BME280;44891;50.204;8.132;2022-10-15T01:04:09;97429.53;;;13.62;100.00
59106;BME280;44891;50.204;8.132;2022-10-15T01:08:12;97439.50;;;13.65;100.00
59106;BME280;44891;50.204;8.132;2022-10-15T01:12:19;97426.28;;;13.70;100.00
59106;BME280;44891;50.204;8.132;2022-10-15T01:16:34;97435.50;;;13.72;100.00
59106;BME280;44891;50.204;8.132;2022-10-15T01:20:58;97430.28;;;13.67;100.00
59106;BME280;44891;50.204;8.132;2022-10-15T01:25:10;97428.13;;;13.69;100.00
59106;BME280;44891;50.204;8.132;2022-10-15T01:29:37;97410.28;;;13.61;100.00
59106;BME280;44891;50.204;8.132;2022-10-15T01:33:53;97412.38;;;13.59;100.00
59106;BME280;44891;50.204;8.132;2022-10-15T01:38:07;97410.59;;;13.54;100.00
59106;BME280;44891;50.204;8.132;2022-10-15T01:42:15;97412.16;;;13.55;100.00
59106;BME280;44891;50.204;8.132;2022-10-15T01:46:23;97413.78;;;13.51;100.00
59106;BME280;44891;50.204;8.132;2022-10-15T01:50:44;97410.34;;;13.51;100.00
59106;BME280;44891;50.204;8.132;2022-10-15T01:54:49;97416.13;;;13.53;100.00
59106;BME280;44891;50.204;8.132;2022-10-15T01:58:55;97409.50;;;13.60;100.00
59106;BME280;44891;50.204;8.132;2022-10-15T02:02:58;97401.56;;;13.60;100.00
59106;BME280;44891;50.204;8.132;2022-10-15T02:07:06;97398.69;;;13.57;100.00
59106;BME280;44891;50.204;8.132;2022-10-15T02:11:12;97412.16;;;13.55;100.00
59106;BME280;44891;50.204;8.132;2022-10-15T02:15:17;97427.47;;;13.53;100.00
59106;BME280;44891;50.204;8.132;2022-10-15T02:19:29;97394.88;;;13.39;100.00
59106;BME280;44891;50.204;8.132;2022-10-15T02:23:41;97414.47;;;13.62;100.00
59106;BME280;44891;50.204;8.132;2022-10-15T02:27:47;97416.66;;;13.55;100.00
59106;BME280;44891;50.204;8.132;2022-10-15T02:31:50;97372.00;;;13.35;100.00
59106;BME280;44891;50.204;8.132;2022-10-15T02:35:53;97410.81;;;13.58;100.00
59106;BME280;44891;50.204;8.132;2022-10-15T02:39:58;97409.50;;;13.60;100.00
59106;BME280;44891;50.204;8.132;2022-10-15T02:44:00;97407.88;;;13.59;100.00
59106;BME280;44891;50.204;8.132;2022-10-15T02:48:04;97396.06;;;13.57;100.00
59106;BME280;44891;50.204;8.132;2022-10-15T02:52:07;97407.16;;;13.54;100.00
59106;BME280;44891;50.204;8.132;2022-10-15T02:56:10;97394.81;;;13.49;100.00
59106;BME280;44891;50.204;8.132;2022-10-15T03:00:13;97412.22;;;13.45;100.00
59106;BME280;44891;50.204;8.132;2022-10-15T03:04:15;97408.00;;;13.49;100.00
59106;BME280;44891;50.204;8.132;2022-10-15T03:08:18;97411.69;;;13.48;100.00
59106;BME280;44891;50.204;8.132;2022-10-15T03:12:22;97419.13;;;13.41;100.00
59106;BME280;44891;50.204;8.132;2022-10-15T03:16:26;97431.00;;;13.39;100.00
59106;BME280;44891;50.204;8.132;2022-10-15T03:20:28;97421.25;;;13.39;100.00
59106;BME280;44891;50.204;8.132;2022-10-15T03:24:30;97423.09;;;13.39;100.00
59106;BME280;44891;50.204;8.132;2022-10-15T03:28:35;97422.31;;;13.38;100.00
59106;BME280;44891;50.204;8.132;2022-10-15T03:32:37;97420.19;;;13.40;100.00
59106;BME280;44891;50.204;8.132;2022-10-15T03:36:40;97431.56;;;13.36;100.00
59106;BME280;44891;50.204;8.132;2022-10-15T03:40:45;97428.09;;;13.40;100.00
59106;BME280;44891;50.204;8.132;2022-10-15T03:44:55;97427.38;;;13.35;100.00
59106;BME280;44891;50.204;8.132;2022-10-15T03:48:57;97432.94;;;13.28;100.00
59106;BME280;44891;50.204;8.132;2022-10-15T03:53:01;97432.97;;;13.23;100.00
59106;BME280;44891;50.204;8.132;2022-10-15T03:57:04;97431.09;;;13.28;100.00
59106;BME280;44891;50.204;8.132;2022-10-15T04:01:14;97437.91;;;13.35;100.00
59106;BME280;44891;50.204;8.132;2022-10-15T04:05:17;97440.00;;;13.32;100.00
59106;BME280;44891;50.204;8.132;2022-10-15T04:09:25;97448.97;;;13.37;100.00
59106;BME280;44891;50.204;8.132;2022-10-15T04:13:39;97454.25;;;13.37;100.00
59106;BME280;44891;50.204;8.132;2022-10-15T04:17:43;97450.53;;;13.38;100.00
59106;BME280;44891;50.204;8.132;2022-10-15T04:21:46;97454.75;;;13.39;100.00
59106;BME280;44891;50.204;8.132;2022-10-15T04:26:01;97453.97;;;13.38;100.00
59106;BME280;44891;50.204;8.132;2022-10-15T04:30:05;97451.34;;;13.33;100.00
59106;BME280;44891;50.204;8.132;2022-10-15T04:34:09;97444.28;;;13.28;100.00
59106;BME280;44891;50.204;8.132;2022-10-15T04:38:12;97443.72;;;13.31;100.00
59106;BME280;44891;50.204;8.132;2022-10-15T04:42:29;97451.88;;;13.35;100.00
59106;BME280;44891;50.204;8.132;2022-10-15T04:46:32;97462.44;;;13.35;100.00
59106;BME280;44891;50.204;8.132;2022-10-15T04:50:44;97470.84;;;13.37;100.00
59106;BME280;44891;50.204;8.132;2022-10-15T04:54:54;97455.53;;;13.39;100.00
59106;BME280;44891;50.204;8.132;2022-10-15T04:58:58;97457.16;;;13.35;100.00
59106;BME280;44891;50.204;8.132;2022-10-15T05:03:04;97456.00;;;13.46;100.00
59106;BME280;44891;50.204;8.132;2022-10-15T05:07:16;97458.31;;;13.53;100.00
59106;BME280;44891;50.204;8.132;2022-10-15T05:11:22;97457.03;;;13.50;100.00
59106;BME280;44891;50.204;8.132;2022-10-15T05:15:25;97463.59;;;13.53;100.00
59106;BME280;44891;50.204;8.132;2022-10-15T05:19:27;97466.50;;;13.56;100.00
59106;BME280;44891;50.204;8.132;2022-10-15T05:23:31;97464.13;;;13.55;100.00
59106;BME280;44891;50.204;8.132;2022-10-15T05:27:48;97477.31;;;13.55;100.00
59106;BME280;44891;50.204;8.132;2022-10-15T05:31:50;97468.06;;;13.57;100.00
59106;BME280;44891;50.204;8.132;2022-10-15T05:35:56;97465.75;;;13.51;100.00
59106;BME280;44891;50.204;8.132;2022-10-15T05:39:59;97481.81;;;13.54;100.00
59106;BME280;44891;50.204;8.132;2022-10-15T05:44:02;97490.25;;;13.56;100.00
59106;BME280;44891;50.204;8.132;2022-10-15T05:48:05;97501.84;;;13.55;100.00
59106;BME280;44891;50.204;8.132;2022-10-15T05:52:08;97518.97;;;13.58;100.00
59106;BME280;44891;50.204;8.132;2022-10-15T05:56:38;97527.13;;;13.62;100.00
59106;BME280;44891;50.204;8.132;2022-10-15T06:00:41;97526.88;;;13.58;100.00
59106;BME280;44891;50.204;8.132;2022-10-15T06:04:43;97505.00;;;13.57;100.00
59106;BME280;44891;50.204;8.132;2022-10-15T06:08:46;97513.69;;;13.58;100.00
59106;BME280;44891;50.204;8.132;2022-10-15T06:12:49;97502.34;;;13.57;100.00
59106;BME280;44891;50.204;8.132;2022-10-15T06:16:52;97523.16;;;13.64;100.00
59106;BME280;44891;50.204;8.132;2022-10-15T06:20:54;97527.91;;;13.67;100.00
59106;BME280;44891;50.204;8.132;2022-10-15T06:24:56;97537.91;;;13.65;100.00
59106;BME280;44891;50.204;8.132;2022-10-15T06:29:00;97531.84;;;13.65;100.00
59106;BME280;44891;50.204;8.132;2022-10-15T06:33:03;97520.84;;;13.52;100.00
59106;BME280;44891;50.204;8.132;2022-10-15T06:37:05;97538.97;;;13.64;100.00
59106;BME280;44891;50.204;8.132;2022-10-15T06:41:07;97543.97;;;13.71;100.00
59106;BME280;44891;50.204;8.132;2022-10-15T06:45:11;97546.84;;;13.74;100.00
59106;BME280;44891;50.204;8.132;2022-10-15T06:49:13;97553.69;;;13.75;100.00
59106;BME280;44891;50.204;8.132;2022-10-15T06:53:17;97563.69;;;13.78;100.00
59106;BME280;44891;50.204;8.132;2022-10-15T06:57:19;97547.94;;;13.68;100.00
59106;BME280;44891;50.204;8.132;2022-10-15T07:01:22;97573.94;;;13.85;100.00
59106;BME280;44891;50.204;8.132;2022-10-15T07:05:24;97578.72;;;13.83;100.00
59106;BME280;44891;50.204;8.132;2022-10-15T07:09:26;97569.72;;;13.84;100.00
59106;BME280;44891;50.204;8.132;2022-10-15T07:13:29;97577.13;;;13.82;100.00
59106;BME280;44891;50.204;8.132;2022-10-15T07:17:36;97586.84;;;13.86;100.00
59106;BME280;44891;50.204;8.132;2022-10-15T07:21:39;97588.69;;;13.91;100.00
59106;BME280;44891;50.204;8.132;2022-10-15T07:25:41;97585.81;;;13.87;100.00
59106;BME280;44891;50.204;8.132;2022-10-15T07:29:43;97582.41;;;13.87;100.00
59106;BME280;44891;50.204;8.132;2022-10-15T07:33:46;97578.16;;;13.86;100.00
59106;BME280;44891;50.204;8.132;2022-10-15T07:37:48;97582.09;;;13.88;100.00
59106;BME280;44891;50.204;8.132;2022-10-15T07:41:51;97579.97;;;13.91;100.00
59106;BME280;44891;50.204;8.132;2022-10-15T07:45:53;97581.53;;;13.97;100.00
59106;BME280;44891;50.204;8.132;2022-10-15T07:49:57;97590.41;;;14.06;100.00
59106;BME280;44891;50.204;8.132;2022-10-15T07:53:59;97589.59;;;14.10;100.00
59106;BME280;44891;50.204;8.132;2022-10-15T07:58:01;97591.38;;;14.20;100.00
59106;BME280;44891;50.204;8.132;2022-10-15T08:02:05;97599.53;;;14.24;100.00
59106;BME280;44891;50.204;8.132;2022-10-15T08:06:09;97598.16;;;14.31;100.00
59106;BME280;44891;50.204;8.132;2022-10-15T08:10:11;97614.13;;;14.45;100.00
59106;BME280;44891;50.204;8.132;2022-10-15T08:14:13;97611.41;;;14.60;100.00
59106;BME280;44891;50.204;8.132;2022-10-15T08:18:15;97601.75;;;14.75;100.00
59106;BME280;44891;50.204;8.132;2022-10-15T08:22:19;97596.81;;;14.92;100.00
59106;BME280;44891;50.204;8.132;2022-10-15T08:26:21;97604.00;;;15.10;100.00
59106;BME280;44891;50.204;8.132;2022-10-15T08:30:23;97604.47;;;15.17;100.00
59106;BME280;44891;50.204;8.132;2022-10-15T08:34:25;97603.19;;;15.15;100.00
59106;BME280;44891;50.204;8.132;2022-10-15T08:38:30;97612.13;;;15.19;100.00
59106;BME280;44891;50.204;8.132;2022-10-15T08:42:36;97606.50;;;15.26;100.00
59106;BME280;44891;50.204;8.132;2022-10-15T08:46:42;97614.44;;;15.26;100.00
59106;BME280;44891;50.204;8.132;2022-10-15T08:50:48;97616.06;;;15.21;100.00
59106;BME280;44891;50.204;8.132;2022-10-15T08:54:55;97614.44;;;15.02;100.00
59106;BME280;44891;50.204;8.132;2022-10-15T08:59:04;97615.25;;;14.97;100.00
59106;BME280;44891;50.204;8.132;2022-10-15T09:03:20;97613.47;;;15.16;100.00
59106;BME280;44891;50.204;8.132;2022-10-15T09:07:32;97623.03;;;15.36;100.00
59106;BME280;44891;50.204;8.132;2022-10-15T09:11:46;97618.69;;;15.45;100.00
59106;BME280;44891;50.204;8.132;2022-10-15T09:15:54;97618.78;;;15.59;100.00
59106;BME280;44891;50.204;8.132;2022-10-15T09:20:02;97603.78;;;15.92;100.00
59106;BME280;44891;50.204;8.132;2022-10-15T09:24:08;97605.53;;;16.16;100.00
59106;BME280;44891;50.204;8.132;2022-10-15T09:28:16;97617.22;;;16.15;100.00
59106;BME280;44891;50.204;8.132;2022-10-15T09:32:24;97623.19;;;16.39;95.72
59106;BME280;44891;50.204;8.132;2022-10-15T09:36:35;97613.31;;;16.45;96.63
59106;BME280;44891;50.204;8.132;2022-10-15T09:40:51;97616.28;;;16.24;97.27
59106;BME280;44891;50.204;8.132;2022-10-15T09:45:00;97618.94;;;16.24;97.53
59106;BME280;44891;50.204;8.132;2022-10-15T09:49:07;97616.53;;;16.42;97.76
59106;BME280;44891;50.204;8.132;2022-10-15T09:53:17;97615.06;;;16.96;94.81
59106;BME280;44891;50.204;8.132;2022-10-15T09:57:21;97616.34;;;16.71;94.62
59106;BME280;44891;50.204;8.132;2022-10-15T10:01:27;97615.69;;;16.60;94.96
59106;BME280;44891;50.204;8.132;2022-10-15T10:05:31;97618.72;;;17.00;93.92
59106;BME280;44891;50.204;8.132;2022-10-15T10:09:37;97620.22;;;17.06;93.66
59106;BME280;44891;50.204;8.132;2022-10-15T10:13:43;97626.47;;;16.96;92.59
59106;BME280;44891;50.204;8.132;2022-10-15T10:17:52;97628.47;;;17.04;91.66
59106;BME280;44891;50.204;8.132;2022-10-15T10:22:05;97636.44;;;17.04;92.77
59106;BME280;44891;50.204;8.132;2022-10-15T10:26:09;97640.25;;;17.12;92.61
59106;BME280;44891;50.204;8.132;2022-10-15T10:30:12;97639.16;;;17.40;91.97
59106;BME280;44891;50.204;8.132;2022-10-15T10:34:17;97639.66;;;19.05;81.91
59106;BME280;44891;50.204;8.132;2022-10-15T10:38:26;97634.72;;;18.58;83.51
59106;BME280;44891;50.204;8.132;2022-10-15T10:42:33;97634.75;;;18.00;86.72
59106;BME280;44891;50.204;8.132;2022-10-15T10:46:41;97647.13;;;17.40;88.91
59106;BME280;44891;50.204;8.132;2022-10-15T10:50:45;97633.09;;;18.71;83.28
59106;BME280;44891;50.204;8.132;2022-10-15T10:54:56;97622.28;;;18.23;84.40
59106;BME280;44891;50.204;8.132;2022-10-15T10:59:03;97621.25;;;18.86;81.90
59106;BME280;44891;50.204;8.132;2022-10-15T11:03:19;97604.75;;;19.54;77.40
59106;BME280;44891;50.204;8.132;2022-10-15T11:07:37;97609.00;;;19.64;76.54
59106;BME280;44891;50.204;8.132;2022-10-15T11:11:49;97603.53;;;19.87;74.00
59106;BME280;44891;50.204;8.132;2022-10-15T11:15:56;97601.97;;;22.81;63.01
59106;BME280;44891;50.204;8.132;2022-10-15T11:20:02;97597.91;;;20.87;68.04
59106;BME280;44891;50.204;8.132;2022-10-15T11:24:13;97592.22;;;18.67;77.69
59106;BME280;44891;50.204;8.132;2022-10-15T11:28:26;97603.59;;;17.91;82.56
59106;BME280;44891;50.204;8.132;2022-10-15T11:32:42;97597.78;;;17.39;86.66
59106;BME280;44891;50.204;8.132;2022-10-15T11:37:01;97597.13;;;17.06;90.86
59106;BME280;44891;50.204;8.132;2022-10-15T11:41:22;97600.44;;;16.84;92.25
59106;BME280;44891;50.204;8.132;2022-10-15T11:45:36;97602.50;;;16.88;92.76
59106;BME280;44891;50.204;8.132;2022-10-15T11:49:55;97594.47;;;16.93;93.50
59106;BME280;44891;50.204;8.132;2022-10-15T11:54:12;97596.19;;;16.83;93.76
59106;BME280;44891;50.204;8.132;2022-10-15T11:58:25;97597.25;;;16.69;94.56
59106;BME280;44891;50.204;8.132;2022-10-15T12:02:33;97590.88;;;16.70;96.60
59106;BME280;44891;50.204;8.132;2022-10-15T12:06:39;97587.41;;;16.69;97.21
59106;BME280;44891;50.204;8.132;2022-10-15T12:11:02;97560.91;;;16.69;96.56
59106;BME280;44891;50.204;8.132;2022-10-15T12:15:23;97569.41;;;16.85;96.21
59106;BME280;44891;50.204;8.132;2022-10-15T12:19:34;97563.31;;;16.84;96.42
59106;BME280;44891;50.204;8.132;2022-10-15T12:23:40;97563.50;;;16.88;96.03
59106;BME280;44891;50.204;8.132;2022-10-15T12:27:42;97561.63;;;16.75;97.04
59106;BME280;44891;50.204;8.132;2022-10-15T12:31:48;97563.19;;;16.76;97.31
59106;BME280;44891;50.204;8.132;2022-10-15T12:35:53;97551.72;;;16.80;96.32
59106;BME280;44891;50.204;8.132;2022-10-15T12:39:58;97551.03;;;16.75;97.25
59106;BME280;44891;50.204;8.132;2022-10-15T12:44:06;97543.28;;;16.78;97.40
59106;BME280;44891;50.204;8.132;2022-10-15T12:48:30;97536.91;;;16.79;96.82
59106;BME280;44891;50.204;8.132;2022-10-15T12:52:55;97550.72;;;16.76;96.47
59106;BME280;44891;50.204;8.132;2022-10-15T12:56:58;97541.81;;;16.72;97.07
59106;BME280;44891;50.204;8.132;2022-10-15T13:01:04;97551.91;;;16.70;97.59
59106;BME280;44891;50.204;8.132;2022-10-15T13:05:23;97536.88;;;16.66;97.92
59106;BME280;44891;50.204;8.132;2022-10-15T13:09:28;97548.34;;;16.61;99.02
59106;BME280;44891;50.204;8.132;2022-10-15T13:13:32;97556.28;;;16.61;99.78
59106;BME280;44891;50.204;8.132;2022-10-15T13:17:37;97556.75;;;16.49;100.00
59106;BME280;44891;50.204;8.132;2022-10-15T13:21:49;97554.81;;;16.55;100.00
59106;BME280;44891;50.204;8.132;2022-10-15T13:25:51;97555.38;;;16.71;100.00
59106;BME280;44891;50.204;8.132;2022-10-15T13:29:57;97540.78;;;16.68;99.23
59106;BME280;44891;50.204;8.132;2022-10-15T13:34:05;97537.97;;;16.78;98.59
59106;BME280;44891;50.204;8.132;2022-10-15T13:38:18;97536.25;;;16.69;99.69
59106;BME280;44891;50.204;8.132;2022-10-15T13:42:23;97538.56;;;16.75;99.54
59106;BME280;44891;50.204;8.132;2022-10-15T13:46:28;97541.72;;;16.77;99.73
59106;BME280;44891;50.204;8.132;2022-10-15T13:50:31;97548.28;;;16.80;99.19
59106;BME280;44891;50.204;8.132;2022-10-15T13:54:36;97553.28;;;16.81;99.70
59106;BME280;44891;50.204;8.132;2022-10-15T13:58:38;97544.94;;;16.88;99.23
59106;BME280;44891;50.204;8.132;2022-10-15T14:02:40;97549.75;;;17.00;97.62
59106;BME280;44891;50.204;8.132;2022-10-15T14:06:51;97516.25;;;16.90;96.97
59106;BME280;44891;50.204;8.132;2022-10-15T14:10:58;97548.38;;;17.02;96.94
59106;BME280;44891;50.204;8.132;2022-10-15T14:19:37;97552.03;;;16.93;97.71
59106;BME280;44891;50.204;8.132;2022-10-15T14:23:41;97541.19;;;17.03;99.02
59106;BME280;44891;50.204;8.132;2022-10-15T14:27:45;97554.38;;;16.94;96.63
59106;BME280;44891;50.204;8.132;2022-10-15T14:31:48;97543.66;;;16.99;97.38
59106;BME280;44891;50.204;8.132;2022-10-15T14:36:02;97546.31;;;17.13;96.82
59106;BME280;44891;50.204;8.132;2022-10-15T14:40:14;97541.28;;;17.25;96.04
59106;BME280;44891;50.204;8.132;2022-10-15T14:44:18;97553.16;;;17.28;95.26
59106;BME280;44891;50.204;8.132;2022-10-15T14:48:23;97567.31;;;17.09;96.38
59106;BME280;44891;50.204;8.132;2022-10-15T14:52:26;97568.00;;;17.15;96.15
59106;BME280;44891;50.204;8.132;2022-10-15T14:56:32;97557.16;;;17.53;93.32
59106;BME280;44891;50.204;8.132;2022-10-15T15:00:40;97563.84;;;17.36;93.95
59106;BME280;44891;50.204;8.132;2022-10-15T15:04:44;97556.44;;;17.25;94.46
59106;BME280;44891;50.204;8.132;2022-10-15T15:08:47;97563.88;;;17.09;96.68
59106;BME280;44891;50.204;8.132;2022-10-15T15:12:52;97565.47;;;16.96;98.62
59106;BME280;44891;50.204;8.132;2022-10-15T15:16:55;97562.03;;;16.96;99.63
59106;BME280;44891;50.204;8.132;2022-10-15T15:21:01;97563.91;;;16.95;98.42
59106;BME280;44891;50.204;8.132;2022-10-15T15:25:09;97576.84;;;16.83;99.51
59106;BME280;44891;50.204;8.132;2022-10-15T15:29:15;97569.88;;;16.73;99.75
59106;BME280;44891;50.204;8.132;2022-10-15T15:33:19;97577.97;;;16.63;100.00
59106;BME280;44891;50.204;8.132;2022-10-15T15:37:23;97573.66;;;16.53;100.00
59106;BME280;44891;50.204;8.132;2022-10-15T15:41:25;97579.25;;;16.52;100.00
59106;BME280;44891;50.204;8.132;2022-10-15T15:45:28;97576.09;;;16.50;100.00
59106;BME280;44891;50.204;8.132;2022-10-15T15:49:32;97568.81;;;16.42;100.00
59106;BME280;44891;50.204;8.132;2022-10-15T15:53:34;97574.19;;;16.37;100.00
59106;BME280;44891;50.204;8.132;2022-10-15T15:57:36;97566.13;;;16.28;100.00
59106;BME280;44891;50.204;8.132;2022-10-15T16:01:39;97560.22;;;16.17;100.00
59106;BME280;44891;50.204;8.132;2022-10-15T16:05:42;97572.97;;;16.15;100.00
59106;BME280;44891;50.204;8.132;2022-10-15T16:09:44;97579.41;;;16.09;100.00
59106;BME280;44891;50.204;8.132;2022-10-15T16:13:47;97583.94;;;16.09;100.00
59106;BME280;44891;50.204;8.132;2022-10-15T16:17:49;97590.38;;;16.02;100.00
59106;BME280;44891;50.204;8.132;2022-10-15T16:21:52;97602.13;;;15.96;100.00
59106;BME280;44891;50.204;8.132;2022-10-15T16:25:54;97588.97;;;15.91;100.00
59106;BME280;44891;50.204;8.132;2022-10-15T16:29:57;97599.06;;;15.89;100.00
59106;BME280;44891;50.204;8.132;2022-10-15T16:34:00;97605.22;;;15.85;100.00
59106;BME280;44891;50.204;8.132;2022-10-15T16:38:04;97610.88;;;15.78;100.00
59106;BME280;44891;50.204;8.132;2022-10-15T16:42:06;97610.06;;;15.77;100.00
59106;BME280;44891;50.204;8.132;2022-10-15T16:46:09;97624.38;;;15.76;100.00
59106;BME280;44891;50.204;8.132;2022-10-15T16:50:11;97625.47;;;15.75;100.00
59106;BME280;44891;50.204;8.132;2022-10-15T16:54:15;97618.31;;;15.76;100.00
59106;BME280;44891;50.204;8.132;2022-10-15T16:58:17;97622.03;;;15.75;100.00
59106;BME280;44891;50.204;8.132;2022-10-15T17:02:19;97633.13;;;15.77;100.00
59106;BME280;44891;50.204;8.132;2022-10-15T17:06:23;97613.16;;;15.66;100.00
59106;BME280;44891;50.204;8.132;2022-10-15T17:10:26;97634.84;;;15.68;100.00
59106;BME280;44891;50.204;8.132;2022-10-15T17:14:28;97643.06;;;15.66;100.00
59106;BME280;44891;50.204;8.132;2022-10-15T17:18:31;97648.91;;;15.63;100.00
59106;BME280;44891;50.204;8.132;2022-10-15T17:22:33;97645.50;;;15.58;100.00
59106;BME280;44891;50.204;8.132;2022-10-15T17:26:38;97648.94;;;15.58;100.00
59106;BME280;44891;50.204;8.132;2022-10-15T17:30:40;97661.13;;;15.59;100.00
59106;BME280;44891;50.204;8.132;2022-10-15T17:34:42;97665.88;;;15.62;100.00
59106;BME280;44891;50.204;8.132;2022-10-15T17:38:45;97668.53;;;15.57;100.00
59106;BME280;44891;50.204;8.132;2022-10-15T17:42:48;97684.09;;;15.64;100.00
59106;BME280;44891;50.204;8.132;2022-10-15T17:46:51;97693.91;;;15.63;100.00
59106;BME280;44891;50.204;8.132;2022-10-15T17:51:00;97688.94;;;15.57;100.00
59106;BME280;44891;50.204;8.132;2022-10-15T17:55:03;97708.22;;;15.62;100.00
59106;BME280;44891;50.204;8.132;2022-10-15T17:59:08;97699.75;;;15.60;100.00
59106;BME280;44891;50.204;8.132;2022-10-15T18:03:11;97709.25;;;15.66;100.00
59106;BME280;44891;50.204;8.132;2022-10-15T18:07:14;97718.25;;;15.65;100.00
59106;BME280;44891;50.204;8.132;2022-10-15T18:11:20;97728.56;;;15.67;100.00
59106;BME280;44891;50.204;8.132;2022-10-15T18:15:25;97726.69;;;15.67;100.00
59106;BME280;44891;50.204;8.132;2022-10-15T18:19:27;97724.59;;;15.64;100.00
59106;BME280;44891;50.204;8.132;2022-10-15T18:23:30;97731.75;;;15.64;100.00
59106;BME280;44891;50.204;8.132;2022-10-15T18:27:33;97727.56;;;15.58;100.00
59106;BME280;44891;50.204;8.132;2022-10-15T18:31:37;97741.66;;;15.53;100.00
59106;BME280;44891;50.204;8.132;2022-10-15T18:35:39;97738.56;;;15.46;100.00
59106;BME280;44891;50.204;8.132;2022-10-15T18:39:42;97751.78;;;15.46;100.00
59106;BME280;44891;50.204;8.132;2022-10-15T18:43:48;97756.63;;;15.39;100.00
59106;BME280;44891;50.204;8.132;2022-10-15T18:47:52;97763.50;;;15.40;100.00
59106;BME280;44891;50.204;8.132;2022-10-15T18:51:54;97757.16;;;15.36;100.00
59106;BME280;44891;50.204;8.132;2022-10-15T18:55:56;97764.31;;;15.35;100.00
59106;BME280;44891;50.204;8.132;2022-10-15T18:59:58;97757.44;;;15.34;100.00
59106;BME280;44891;50.204;8.132;2022-10-15T19:04:04;97752.50;;;15.28;100.00
59106;BME280;44891;50.204;8.132;2022-10-15T19:08:07;97752.25;;;15.24;100.00
59106;BME280;44891;50.204;8.132;2022-10-15T19:12:09;97739.91;;;15.14;100.00
59106;BME280;44891;50.204;8.132;2022-10-15T19:16:11;97747.91;;;15.09;100.00
59106;BME280;44891;50.204;8.132;2022-10-15T19:20:15;97742.66;;;15.04;100.00
59106;BME280;44891;50.204;8.132;2022-10-15T19:24:19;97745.34;;;14.99;100.00
59106;BME280;44891;50.204;8.132;2022-10-15T19:28:21;97752.22;;;15.00;100.00
59106;BME280;44891;50.204;8.132;2022-10-15T19:32:23;97745.44;;;14.89;100.00
59106;BME280;44891;50.204;8.132;2022-10-15T19:36:28;97751.81;;;14.83;100.00
59106;BME280;44891;50.204;8.132;2022-10-15T19:40:35;97747.34;;;14.78;100.00
59106;BME280;44891;50.204;8.132;2022-10-15T19:44:37;97753.75;;;14.72;100.00
59106;BME280;44891;50.204;8.132;2022-10-15T19:48:39;97758.25;;;14.72;100.00
59106;BME280;44891;50.204;8.132;2022-10-15T19:52:43;97768.31;;;14.69;100.00
59106;BME280;44891;50.204;8.132;2022-10-15T19:56:45;97770.44;;;14.67;100.00
59106;BME280;44891;50.204;8.132;2022-10-15T20:00:47;97783.94;;;14.66;100.00
59106;BME280;44891;50.204;8.132;2022-10-15T20:04:50;97782.34;;;14.65;100.00
59106;BME280;44891;50.204;8.132;2022-10-15T20:08:53;97788.19;;;14.62;100.00
59106;BME280;44891;50.204;8.132;2022-10-15T20:12:56;97787.16;;;14.58;100.00
59106;BME280;44891;50.204;8.132;2022-10-15T20:16:58;97789.78;;;14.58;100.00
59106;BME280;44891;50.204;8.132;2022-10-15T20:21:05;97795.91;;;14.53;100.00
59106;BME280;44891;50.204;8.132;2022-10-15T20:25:09;97800.63;;;14.56;100.00
59106;BME280;44891;50.204;8.132;2022-10-15T20:29:12;97799.56;;;14.57;100.00
59106;BME280;44891;50.204;8.132;2022-10-15T20:33:17;97807.28;;;14.49;100.00
59106;BME280;44891;50.204;8.132;2022-10-15T20:37:19;97826.06;;;14.47;100.00
59106;BME280;44891;50.204;8.132;2022-10-15T20:41:22;97845.63;;;14.46;100.00
59106;BME280;44891;50.204;8.132;2022-10-15T20:45:25;97864.56;;;14.58;100.00
59106;BME280;44891;50.204;8.132;2022-10-15T20:49:33;97859.75;;;14.65;100.00
59106;BME280;44891;50.204;8.132;2022-10-15T20:53:36;97854.47;;;14.71;100.00
59106;BME280;44891;50.204;8.132;2022-10-15T20:57:40;97861.38;;;14.66;100.00
59106;BME280;44891;50.204;8.132;2022-10-15T21:01:42;97861.84;;;14.74;100.00
59106;BME280;44891;50.204;8.132;2022-10-15T21:05:44;97844.94;;;14.75;100.00
59106;BME280;44891;50.204;8.132;2022-10-15T21:09:46;97856.00;;;14.77;100.00
59106;BME280;44891;50.204;8.132;2022-10-15T21:13:50;97858.44;;;14.68;100.00
59106;BME280;44891;50.204;8.132;2022-10-15T21:17:52;97867.47;;;14.62;100.00
59106;BME280;44891;50.204;8.132;2022-10-15T21:21:54;97869.63;;;14.55;100.00
59106;BME280;44891;50.204;8.132;2022-10-15T21:26:02;97862.50;;;14.50;100.00
59106;BME280;44891;50.204;8.132;2022-10-15T21:30:06;97867.25;;;14.53;100.00
59106;BME280;44891;50.204;8.132;2022-10-15T21:34:08;97869.91;;;14.48;100.00